sensor_id;sensor_type;location;lat;lon;timestamp;noise_LAeq;noise_LA_min;noise_LA_max;noise_LA01;noise_LA95
77729;Laerm;68312;53.502;10.030;2023-04-06T00:01:41;52.40;47.11;58.28;;
77729;Laerm;68312;53.502;10.030;2023-04-06T00:04:07;51.40;47.65;57.15;;
77729;Laerm;68312;53.502;10.030;2023-04-06T00:06:33;50.53;46.11;55.20;;
77729;Laerm;68312;53.502;10.030;2023-04-06T00:09:00;51.92;46.43;56.45;;
77729;Laerm;68312;53.502;10.030;2023-04-06T00:11:26;51.11;44.79;57.29;;
77729;Laerm;68312;53.502;10.030;2023-04-06T00:13:52;46.57;39.53;52.89;;
77729;Laerm;68312;53.502;10.030;2023-04-06T00:16:19;48.00;43.03;55.34;;
77729;Laerm;68312;53.502;10.030;2023-04-06T00:18:44;53.02;49.22;58.50;;
77729;Laerm;68312;53.502;10.030;2023-04-06T00:21:14;50.74;45.84;56.07;;
77729;Laerm;68312;53.502;10.030;2023-04-06T00:23:41;49.54;45.71;54.05;;
77729;Laerm;68312;53.502;10.030;2023-04-06T00:26:08;50.39;44.23;54.76;;
77729;Laerm;68312;53.502;10.030;2023-04-06T00:28:34;49.68;45.57;54.86;;
77729;Laerm;68312;53.502;10.030;2023-04-06T00:30:59;52.56;46.87;63.33;;
77729;Laerm;68312;53.502;10.030;2023-04-06T00:33:25;50.60;45.28;55.75;;
77729;Laerm;68312;53.502;10.030;2023-04-06T00:35:51;48.48;44.11;58.92;;
77729;Laerm;68312;53.502;10.030;2023-04-06T00:38:16;51.35;46.86;57.39;;
77729;Laerm;68312;53.502;10.030;2023-04-06T00:40:43;51.33;47.64;56.08;;
77729;Laerm;68312;53.502;10.030;2023-04-06T00:43:12;50.56;45.18;57.77;;
77729;Laerm;68312;53.502;10.030;2023-04-06T00:45:42;52.04;47.41;58.48;;
77729;Laerm;68312;53.502;10.030;2023-04-06T00:48:08;50.27;46.19;54.72;;
77729;Laerm;68312;53.502;10.030;2023-04-06T00:50:35;50.93;46.78;57.82;;
77729;Laerm;68312;53.502;10.030;2023-04-06T00:53:01;51.32;45.49;57.29;;
77729;Laerm;68312;53.502;10.030;2023-04-06T00:55:28;49.84;44.57;55.30;;
77729;Laerm;68312;53.502;10.030;2023-04-06T00:57:57;48.42;43.68;53.61;;
77729;Laerm;68312;53.502;10.030;2023-04-06T01:00:24;51.53;45.62;57.27;;
77729;Laerm;68312;53.502;10.030;2023-04-06T01:02:49;49.62;45.60;54.88;;
77729;Laerm;68312;53.502;10.030;2023-04-06T01:05:15;49.60;44.89;57.64;;
77729;Laerm;68312;53.502;10.030;2023-04-06T01:07:40;49.83;45.95;56.05;;
77729;Laerm;68312;53.502;10.030;2023-04-06T01:10:06;49.52;44.97;57.73;;
77729;Laerm;68312;53.502;10.030;2023-04-06T01:12:32;49.58;44.90;53.71;;
77729;Laerm;68312;53.502;10.030;2023-04-06T01:14:58;48.32;44.21;51.55;;
77729;Laerm;68312;53.502;10.030;2023-04-06T01:17:23;50.42;46.39;55.48;;
77729;Laerm;68312;53.502;10.030;2023-04-06T01:19:49;49.44;45.06;53.74;;
77729;Laerm;68312;53.502;10.030;2023-04-06T01:22:16;49.57;46.10;54.58;;
77729;Laerm;68312;53.502;10.030;2023-04-06T01:24:43;49.22;44.26;54.38;;
77729;Laerm;68312;53.502;10.030;2023-04-06T01:27:09;48.52;45.01;52.51;;
77729;Laerm;68312;53.502;10.030;2023-04-06T01:29:35;48.22;43.99;52.47;;
77729;Laerm;68312;53.502;10.030;2023-04-06T01:32:00;48.03;43.35;51.84;;
77729;Laerm;68312;53.502;10.030;2023-04-06T01:34:26;48.34;43.17;55.83;;
77729;Laerm;68312;53.502;10.030;2023-04-06T01:36:51;49.47;45.31;54.66;;
77729;Laerm;68312;53.502;10.030;2023-04-06T01:39:17;49.87;45.46;58.11;;
77729;Laerm;68312;53.502;10.030;2023-04-06T01:41:42;51.64;46.56;58.88;;
77729;Laerm;68312;53.502;10.030;2023-04-06T01:44:08;51.64;46.41;57.07;;
77729;Laerm;68312;53.502;10.030;2023-04-06T01:46:34;50.39;44.78;61.55;;
77729;Laerm;68312;53.502;10.030;2023-04-06T01:48:59;51.26;46.83;59.66;;
77729;Laerm;68312;53.502;10.030;2023-04-06T01:51:25;51.50;46.35;56.89;;
77729;Laerm;68312;53.502;10.030;2023-04-06T01:53:51;51.13;47.57;56.05;;
77729;Laerm;68312;53.502;10.030;2023-04-06T01:56:17;51.33;46.78;56.69;;
77729;Laerm;68312;53.502;10.030;2023-04-06T01:58:42;51.88;47.69;56.46;;
77729;Laerm;68312;53.502;10.030;2023-04-06T02:01:08;52.35;46.86;56.99;;
77729;Laerm;68312;53.502;10.030;2023-04-06T02:03:33;51.37;46.19;60.26;;
77729;Laerm;68312;53.502;10.030;2023-04-06T02:05:59;53.37;48.92;57.62;;
77729;Laerm;68312;53.502;10.030;2023-04-06T02:08:24;52.29;47.75;56.33;;
77729;Laerm;68312;53.502;10.030;2023-04-06T02:10:50;52.36;47.84;58.21;;
77729;Laerm;68312;53.502;10.030;2023-04-06T02:13:15;52.56;48.11;57.56;;
77729;Laerm;68312;53.502;10.030;2023-04-06T02:15:41;51.38;47.63;57.84;;
77729;Laerm;68312;53.502;10.030;2023-04-06T02:18:06;52.18;47.92;57.80;;
77729;Laerm;68312;53.502;10.030;2023-04-06T02:20:32;52.31;47.65;59.00;;
77729;Laerm;68312;53.502;10.030;2023-04-06T02:22:59;52.19;47.79;58.52;;
77729;Laerm;68312;53.502;10.030;2023-04-06T02:25:25;52.33;47.76;56.48;;
77729;Laerm;68312;53.502;10.030;2023-04-06T02:27:51;53.13;49.55;58.07;;
77729;Laerm;68312;53.502;10.030;2023-04-06T02:30:17;53.56;48.09;58.94;;
77729;Laerm;68312;53.502;10.030;2023-04-06T02:32:42;51.76;47.22;56.12;;
77729;Laerm;68312;53.502;10.030;2023-04-06T02:35:08;51.61;48.19;57.32;;
77729;Laerm;68312;53.502;10.030;2023-04-06T02:37:33;51.53;47.60;55.90;;
77729;Laerm;68312;53.502;10.030;2023-04-06T02:39:59;52.51;48.99;56.04;;
77729;Laerm;68312;53.502;10.030;2023-04-06T02:42:25;53.71;50.09;59.84;;
77729;Laerm;68312;53.502;10.030;2023-04-06T02:44:50;51.61;45.63;56.78;;
77729;Laerm;68312;53.502;10.030;2023-04-06T02:47:16;52.52;48.45;55.87;;
77729;Laerm;68312;53.502;10.030;2023-04-06T02:49:41;56.67;49.50;72.92;;
77729;Laerm;68312;53.502;10.030;2023-04-06T02:52:07;53.49;49.18;59.96;;
77729;Laerm;68312;53.502;10.030;2023-04-06T02:54:32;52.25;47.28;59.54;;
77729;Laerm;68312;53.502;10.030;2023-04-06T02:56:58;50.95;46.38;56.46;;
77729;Laerm;68312;53.502;10.030;2023-04-06T02:59:23;50.85;47.46;54.86;;
77729;Laerm;68312;53.502;10.030;2023-04-06T03:01:49;51.92;47.69;59.30;;
77729;Laerm;68312;53.502;10.030;2023-04-06T03:04:14;51.46;47.60;55.79;;
77729;Laerm;68312;53.502;10.030;2023-04-06T03:06:40;54.60;48.43;67.27;;
77729;Laerm;68312;53.502;10.030;2023-04-06T03:09:06;52.35;49.02;56.75;;
77729;Laerm;68312;53.502;10.030;2023-04-06T03:11:32;52.88;48.43;57.37;;
77729;Laerm;68312;53.502;10.030;2023-04-06T03:13:57;53.70;50.12;57.93;;
77729;Laerm;68312;53.502;10.030;2023-04-06T03:16:23;53.72;49.52;59.27;;
77729;Laerm;68312;53.502;10.030;2023-04-06T03:18:48;54.98;50.70;61.02;;
77729;Laerm;68312;53.502;10.030;2023-04-06T03:21:14;53.07;49.51;59.71;;
77729;Laerm;68312;53.502;10.030;2023-04-06T03:23:42;52.69;48.46;56.32;;
77729;Laerm;68312;53.502;10.030;2023-04-06T03:26:08;52.89;49.34;58.12;;
77729;Laerm;68312;53.502;10.030;2023-04-06T03:28:34;53.62;49.57;58.02;;
77729;Laerm;68312;53.502;10.030;2023-04-06T03:30:59;54.95;51.07;58.81;;
77729;Laerm;68312;53.502;10.030;2023-04-06T03:33:25;53.30;49.32;57.71;;
77729;Laerm;68312;53.502;10.030;2023-04-06T03:35:54;53.65;50.11;57.99;;
77729;Laerm;68312;53.502;10.030;2023-04-06T03:38:20;54.94;51.71;60.52;;
77729;Laerm;68312;53.502;10.030;2023-04-06T03:40:45;54.98;51.77;62.88;;
77729;Laerm;68312;53.502;10.030;2023-04-06T03:43:11;54.71;50.52;69.99;;
77729;Laerm;68312;53.502;10.030;2023-04-06T03:45:37;54.04;50.81;58.66;;
77729;Laerm;68312;53.502;10.030;2023-04-06T03:48:05;55.19;50.81;62.93;;
77729;Laerm;68312;53.502;10.030;2023-04-06T03:50:30;55.61;51.17;64.60;;
77729;Laerm;68312;53.502;10.030;2023-04-06T03:52:56;54.19;50.48;64.00;;
77729;Laerm;68312;53.502;10.030;2023-04-06T03:55:21;54.98;50.65;64.70;;
77729;Laerm;68312;53.502;10.030;2023-04-06T03:57:47;55.35;51.86;59.62;;
77729;Laerm;68312;53.502;10.030;2023-04-06T04:00:13;53.91;49.88;59.10;;
77729;Laerm;68312;53.502;10.030;2023-04-06T04:02:39;53.58;50.53;59.71;;
77729;Laerm;68312;53.502;10.030;2023-04-06T04:05:05;54.11;50.10;60.24;;
77729;Laerm;68312;53.502;10.030;2023-04-06T04:07:31;54.62;50.85;59.33;;
77729;Laerm;68312;53.502;10.030;2023-04-06T04:09:56;55.24;51.23;66.46;;
77729;Laerm;68312;53.502;10.030;2023-04-06T04:12:21;55.05;51.14;62.97;;
77729;Laerm;68312;53.502;10.030;2023-04-06T04:14:47;55.34;51.29;67.47;;
77729;Laerm;68312;53.502;10.030;2023-04-06T04:17:12;54.89;51.04;63.95;;
77729;Laerm;68312;53.502;10.030;2023-04-06T04:19:38;53.31;49.96;58.77;;
77729;Laerm;68312;53.502;10.030;2023-04-06T04:22:03;53.74;50.64;58.00;;
77729;Laerm;68312;53.502;10.030;2023-04-06T04:24:32;53.82;51.07;59.36;;
77729;Laerm;68312;53.502;10.030;2023-04-06T04:26:59;54.27;51.08;59.54;;
77729;Laerm;68312;53.502;10.030;2023-04-06T04:29:26;54.20;51.06;65.79;;
77729;Laerm;68312;53.502;10.030;2023-04-06T04:31:52;55.28;52.51;62.48;;
77729;Laerm;68312;53.502;10.030;2023-04-06T04:34:18;55.28;51.99;60.44;;
77729;Laerm;68312;53.502;10.030;2023-04-06T04:36:46;55.18;51.21;59.20;;
77729;Laerm;68312;53.502;10.030;2023-04-06T04:39:11;54.83;51.03;65.31;;
77729;Laerm;68312;53.502;10.030;2023-04-06T04:41:37;55.47;50.96;68.13;;
77729;Laerm;68312;53.502;10.030;2023-04-06T04:44:02;57.07;51.36;73.39;;
77729;Laerm;68312;53.502;10.030;2023-04-06T04:46:28;56.35;51.21;69.98;;
77729;Laerm;68312;53.502;10.030;2023-04-06T04:48:54;53.97;50.66;63.40;;
77729;Laerm;68312;53.502;10.030;2023-04-06T04:51:19;54.95;51.18;71.47;;
77729;Laerm;68312;53.502;10.030;2023-04-06T04:53:45;53.35;50.05;58.39;;
77729;Laerm;68312;53.502;10.030;2023-04-06T04:56:11;52.91;49.70;60.83;;
77729;Laerm;68312;53.502;10.030;2023-04-06T04:58:36;53.71;50.09;63.75;;
77729;Laerm;68312;53.502;10.030;2023-04-06T05:01:02;53.76;49.66;64.84;;
77729;Laerm;68312;53.502;10.030;2023-04-06T05:03:27;54.04;50.26;61.09;;
77729;Laerm;68312;53.502;10.030;2023-04-06T05:05:53;54.13;50.42;59.88;;
77729;Laerm;68312;53.502;10.030;2023-04-06T05:08:18;55.48;50.02;71.35;;
77729;Laerm;68312;53.502;10.030;2023-04-06T05:10:44;53.44;50.02;60.72;;
77729;Laerm;68312;53.502;10.030;2023-04-06T05:13:11;53.48;50.01;59.29;;
77729;Laerm;68312;53.502;10.030;2023-04-06T05:15:37;54.88;49.41;70.31;;
77729;Laerm;68312;53.502;10.030;2023-04-06T05:18:07;54.61;50.00;68.41;;
77729;Laerm;68312;53.502;10.030;2023-04-06T05:20:34;54.05;50.17;63.97;;
77729;Laerm;68312;53.502;10.030;2023-04-06T05:23:00;55.07;50.59;66.71;;
77729;Laerm;68312;53.502;10.030;2023-04-06T05:25:26;54.18;50.59;59.83;;
77729;Laerm;68312;53.502;10.030;2023-04-06T05:27:52;53.51;49.90;59.28;;
77729;Laerm;68312;53.502;10.030;2023-04-06T05:30:18;53.34;49.76;66.45;;
77729;Laerm;68312;53.502;10.030;2023-04-06T05:32:44;53.17;49.79;60.28;;
77729;Laerm;68312;53.502;10.030;2023-04-06T05:35:10;52.65;49.44;59.61;;
77729;Laerm;68312;53.502;10.030;2023-04-06T05:37:37;54.08;49.31;65.81;;
77729;Laerm;68312;53.502;10.030;2023-04-06T05:40:03;52.25;48.82;58.98;;
77729;Laerm;68312;53.502;10.030;2023-04-06T05:42:41;51.82;48.27;56.97;;
77729;Laerm;68312;53.502;10.030;2023-04-06T05:45:10;52.21;48.78;59.86;;
77729;Laerm;68312;53.502;10.030;2023-04-06T05:47:37;53.08;48.96;64.93;;
77729;Laerm;68312;53.502;10.030;2023-04-06T05:50:03;52.35;48.99;56.86;;
77729;Laerm;68312;53.502;10.030;2023-04-06T05:52:28;53.13;49.72;61.77;;
77729;Laerm;68312;53.502;10.030;2023-04-06T05:54:54;52.58;49.16;60.17;;
77729;Laerm;68312;53.502;10.030;2023-04-06T05:57:19;52.69;48.39;62.00;;
77729;Laerm;68312;53.502;10.030;2023-04-06T05:59:45;52.58;48.12;64.02;;
77729;Laerm;68312;53.502;10.030;2023-04-06T06:02:10;52.08;48.38;65.19;;
77729;Laerm;68312;53.502;10.030;2023-04-06T06:04:36;52.59;47.87;60.41;;
77729;Laerm;68312;53.502;10.030;2023-04-06T06:07:02;52.11;48.93;58.33;;
77729;Laerm;68312;53.502;10.030;2023-04-06T06:09:28;52.29;48.67;59.11;;
77729;Laerm;68312;53.502;10.030;2023-04-06T06:11:53;51.03;47.33;56.14;;
77729;Laerm;68312;53.502;10.030;2023-04-06T06:14:19;52.11;47.99;61.27;;
77729;Laerm;68312;53.502;10.030;2023-04-06T06:16:45;52.44;48.15;63.78;;
77729;Laerm;68312;53.502;10.030;2023-04-06T06:19:10;51.78;47.85;63.47;;
77729;Laerm;68312;53.502;10.030;2023-04-06T06:21:36;51.60;47.38;60.88;;
77729;Laerm;68312;53.502;10.030;2023-04-06T06:24:02;52.54;47.31;67.26;;
77729;Laerm;68312;53.502;10.030;2023-04-06T06:26:27;50.92;46.53;60.98;;
77729;Laerm;68312;53.502;10.030;2023-04-06T06:28:53;51.15;47.10;64.48;;
77729;Laerm;68312;53.502;10.030;2023-04-06T06:31:19;52.00;47.66;72.14;;
77729;Laerm;68312;53.502;10.030;2023-04-06T06:33:48;51.25;47.30;61.50;;
77729;Laerm;68312;53.502;10.030;2023-04-06T06:36:17;51.08;47.26;56.97;;
77729;Laerm;68312;53.502;10.030;2023-04-06T06:38:44;50.96;46.93;65.74;;
77729;Laerm;68312;53.502;10.030;2023-04-06T06:41:10;51.11;46.73;64.41;;
77729;Laerm;68312;53.502;10.030;2023-04-06T06:43:36;51.02;46.35;66.36;;
77729;Laerm;68312;53.502;10.030;2023-04-06T06:46:03;50.16;46.03;62.61;;
77729;Laerm;68312;53.502;10.030;2023-04-06T06:48:29;48.67;44.80;59.16;;
77729;Laerm;68312;53.502;10.030;2023-04-06T06:50:55;49.39;44.96;57.43;;
77729;Laerm;68312;53.502;10.030;2023-04-06T06:53:20;48.97;44.88;55.87;;
77729;Laerm;68312;53.502;10.030;2023-04-06T06:55:46;48.73;45.38;55.56;;
77729;Laerm;68312;53.502;10.030;2023-04-06T06:58:12;48.58;44.15;54.20;;
77729;Laerm;68312;53.502;10.030;2023-04-06T07:00:37;53.37;45.63;69.67;;
77729;Laerm;68312;53.502;10.030;2023-04-06T07:03:03;48.12;44.58;53.40;;
77729;Laerm;68312;53.502;10.030;2023-04-06T07:05:28;48.62;44.65;59.79;;
77729;Laerm;68312;53.502;10.030;2023-04-06T07:07:55;49.31;45.12;55.21;;
77729;Laerm;68312;53.502;10.030;2023-04-06T07:10:21;48.47;44.67;57.85;;
77729;Laerm;68312;53.502;10.030;2023-04-06T07:12:47;48.52;44.69;58.56;;
77729;Laerm;68312;53.502;10.030;2023-04-06T07:15:12;48.65;45.00;58.77;;
77729;Laerm;68312;53.502;10.030;2023-04-06T07:17:38;48.41;44.81;56.83;;
77729;Laerm;68312;53.502;10.030;2023-04-06T07:20:04;47.68;44.47;53.25;;
77729;Laerm;68312;53.502;10.030;2023-04-06T07:22:30;49.56;43.30;62.42;;
77729;Laerm;68312;53.502;10.030;2023-04-06T07:24:56;48.25;44.17;57.40;;
77729;Laerm;68312;53.502;10.030;2023-04-06T07:27:21;48.42;43.79;60.42;;
77729;Laerm;68312;53.502;10.030;2023-04-06T07:29:47;47.54;43.78;53.40;;
77729;Laerm;68312;53.502;10.030;2023-04-06T07:32:12;52.70;43.50;70.03;;
77729;Laerm;68312;53.502;10.030;2023-04-06T07:34:38;48.47;43.83;58.78;;
77729;Laerm;68312;53.502;10.030;2023-04-06T07:37:03;49.28;43.92;60.24;;
77729;Laerm;68312;53.502;10.030;2023-04-06T07:39:29;47.99;44.08;58.24;;
77729;Laerm;68312;53.502;10.030;2023-04-06T07:41:55;47.58;44.07;55.30;;
77729;Laerm;68312;53.502;10.030;2023-04-06T07:44:20;48.07;43.69;56.86;;
77729;Laerm;68312;53.502;10.030;2023-04-06T07:46:46;47.67;43.98;58.04;;
77729;Laerm;68312;53.502;10.030;2023-04-06T07:49:11;49.20;43.91;67.72;;
77729;Laerm;68312;53.502;10.030;2023-04-06T07:51:39;47.29;44.11;54.11;;
77729;Laerm;68312;53.502;10.030;2023-04-06T07:54:05;47.34;43.19;53.79;;
77729;Laerm;68312;53.502;10.030;2023-04-06T07:56:31;49.22;43.80;67.01;;
77729;Laerm;68312;53.502;10.030;2023-04-06T07:58:56;50.29;45.02;60.75;;
77729;Laerm;68312;53.502;10.030;2023-04-06T08:01:23;48.98;43.72;57.75;;
77729;Laerm;68312;53.502;10.030;2023-04-06T08:03:49;48.05;43.91;58.59;;
77729;Laerm;68312;53.502;10.030;2023-04-06T08:06:16;49.07;45.00;61.35;;
77729;Laerm;68312;53.502;10.030;2023-04-06T08:08:42;48.57;44.28;55.96;;
77729;Laerm;68312;53.502;10.030;2023-04-06T08:11:09;48.75;45.00;56.40;;
77729;Laerm;68312;53.502;10.030;2023-04-06T08:13:35;48.40;43.86;57.29;;
77729;Laerm;68312;53.502;10.030;2023-04-06T08:16:01;47.52;44.22;55.63;;
77729;Laerm;68312;53.502;10.030;2023-04-06T08:18:27;47.77;43.50;55.44;;
77729;Laerm;68312;53.502;10.030;2023-04-06T08:20:54;47.64;43.22;59.85;;
77729;Laerm;68312;53.502;10.030;2023-04-06T08:23:20;48.07;43.55;58.38;;
77729;Laerm;68312;53.502;10.030;2023-04-06T08:25:45;47.03;43.02;58.09;;
77729;Laerm;68312;53.502;10.030;2023-04-06T08:28:11;78.70;44.11;100.08;;
77729;Laerm;68312;53.502;10.030;2023-04-06T08:30:41;48.66;44.27;57.50;;
77729;Laerm;68312;53.502;10.030;2023-04-06T08:33:06;48.48;44.61;55.58;;
77729;Laerm;68312;53.502;10.030;2023-04-06T08:35:32;48.15;44.07;54.77;;
77729;Laerm;68312;53.502;10.030;2023-04-06T08:37:58;48.08;44.40;56.64;;
77729;Laerm;68312;53.502;10.030;2023-04-06T08:40:23;47.35;43.84;53.97;;
77729;Laerm;68312;53.502;10.030;2023-04-06T08:42:59;48.15;42.85;58.10;;
77729;Laerm;68312;53.502;10.030;2023-04-06T08:45:27;48.48;44.22;56.85;;
77729;Laerm;68312;53.502;10.030;2023-04-06T08:47:54;48.44;43.19;60.80;;
77729;Laerm;68312;53.502;10.030;2023-04-06T08:50:23;46.63;43.05;52.45;;
77729;Laerm;68312;53.502;10.030;2023-04-06T08:52:49;48.81;44.18;62.78;;
77729;Laerm;68312;53.502;10.030;2023-04-06T08:55:16;47.62;43.31;54.41;;
77729;Laerm;68312;53.502;10.030;2023-04-06T08:57:42;49.77;45.48;57.87;;
77729;Laerm;68312;53.502;10.030;2023-04-06T09:00:11;50.39;45.00;60.56;;
77729;Laerm;68312;53.502;10.030;2023-04-06T09:02:45;53.06;47.09;62.65;;
77729;Laerm;68312;53.502;10.030;2023-04-06T09:05:12;50.24;46.18;56.52;;
77729;Laerm;68312;53.502;10.030;2023-04-06T09:07:38;50.42;46.08;61.93;;
77729;Laerm;68312;53.502;10.030;2023-04-06T09:10:06;49.39;45.25;57.66;;
77729;Laerm;68312;53.502;10.030;2023-04-06T09:12:33;50.28;45.15;62.08;;
77729;Laerm;68312;53.502;10.030;2023-04-06T09:15:01;48.76;44.44;58.20;;
77729;Laerm;68312;53.502;10.030;2023-04-06T09:17:31;49.74;45.61;58.61;;
77729;Laerm;68312;53.502;10.030;2023-04-06T09:20:01;50.68;45.28;68.82;;
77729;Laerm;68312;53.502;10.030;2023-04-06T09:22:37;50.82;45.65;65.18;;
77729;Laerm;68312;53.502;10.030;2023-04-06T09:25:04;49.25;44.86;56.54;;
77729;Laerm;68312;53.502;10.030;2023-04-06T09:27:33;49.96;45.99;57.02;;
77729;Laerm;68312;53.502;10.030;2023-04-06T09:30:11;58.62;44.66;74.40;;
77729;Laerm;68312;53.502;10.030;2023-04-06T09:32:51;61.04;45.27;78.44;;
77729;Laerm;68312;53.502;10.030;2023-04-06T09:35:19;60.20;44.93;72.82;;
77729;Laerm;68312;53.502;10.030;2023-04-06T09:37:51;64.68;43.99;78.89;;
77729;Laerm;68312;53.502;10.030;2023-04-06T09:40:19;49.30;45.19;60.04;;
77729;Laerm;68312;53.502;10.030;2023-04-06T09:42:47;50.91;44.86;58.26;;
77729;Laerm;68312;53.502;10.030;2023-04-06T09:45:14;50.08;45.54;57.39;;
77729;Laerm;68312;53.502;10.030;2023-04-06T09:47:45;51.56;46.20;69.50;;
77729;Laerm;68312;53.502;10.030;2023-04-06T09:50:13;49.64;44.67;64.36;;
77729;Laerm;68312;53.502;10.030;2023-04-06T09:52:48;50.50;42.81;66.79;;
77729;Laerm;68312;53.502;10.030;2023-04-06T09:55:32;50.02;43.80;66.64;;
77729;Laerm;68312;53.502;10.030;2023-04-06T09:58:10;47.33;42.36;58.07;;
77729;Laerm;68312;53.502;10.030;2023-04-06T10:01:01;47.23;42.28;59.17;;
77729;Laerm;68312;53.502;10.030;2023-04-06T10:04:04;49.98;42.58;68.05;;
77729;Laerm;68312;53.502;10.030;2023-04-06T10:06:34;45.39;40.94;60.60;;
77729;Laerm;68312;53.502;10.030;2023-04-06T10:09:04;45.72;42.36;54.63;;
77729;Laerm;68312;53.502;10.030;2023-04-06T10:11:34;47.04;43.31;56.12;;
77729;Laerm;68312;53.502;10.030;2023-04-06T10:14:00;45.36;40.90;56.40;;
77729;Laerm;68312;53.502;10.030;2023-04-06T10:16:26;52.41;40.65;67.86;;
77729;Laerm;68312;53.502;10.030;2023-04-06T10:19:06;45.56;40.85;53.48;;
77729;Laerm;68312;53.502;10.030;2023-04-06T10:21:33;48.86;42.64;64.01;;
77729;Laerm;68312;53.502;10.030;2023-04-06T10:24:08;45.69;40.96;57.97;;
77729;Laerm;68312;53.502;10.030;2023-04-06T10:26:36;49.14;42.18;63.91;;
77729;Laerm;68312;53.502;10.030;2023-04-06T10:29:05;47.24;41.86;57.18;;
77729;Laerm;68312;53.502;10.030;2023-04-06T10:31:31;44.88;39.23;57.52;;
77729;Laerm;68312;53.502;10.030;2023-04-06T10:34:02;45.39;41.97;52.57;;
77729;Laerm;68312;53.502;10.030;2023-04-06T10:36:34;47.21;42.86;58.47;;
77729;Laerm;68312;53.502;10.030;2023-04-06T10:39:04;44.29;40.53;52.71;;
77729;Laerm;68312;53.502;10.030;2023-04-06T10:41:41;46.60;40.49;58.86;;
77729;Laerm;68312;53.502;10.030;2023-04-06T10:44:07;48.98;40.96;61.39;;
77729;Laerm;68312;53.502;10.030;2023-04-06T10:46:33;47.11;41.81;61.48;;
77729;Laerm;68312;53.502;10.030;2023-04-06T10:49:17;45.10;41.53;55.10;;
77729;Laerm;68312;53.502;10.030;2023-04-06T10:51:42;46.74;41.48;60.22;;
77729;Laerm;68312;53.502;10.030;2023-04-06T10:54:11;45.67;41.59;60.64;;
77729;Laerm;68312;53.502;10.030;2023-04-06T10:56:37;46.43;42.89;58.90;;
77729;Laerm;68312;53.502;10.030;2023-04-06T10:59:06;46.23;41.70;63.41;;
77729;Laerm;68312;53.502;10.030;2023-04-06T11:01:32;46.38;41.64;59.04;;
77729;Laerm;68312;53.502;10.030;2023-04-06T11:03:58;43.68;40.15;50.10;;
77729;Laerm;68312;53.502;10.030;2023-04-06T11:06:27;45.67;40.87;57.38;;
77729;Laerm;68312;53.502;10.030;2023-04-06T11:08:55;45.81;41.92;55.47;;
77729;Laerm;68312;53.502;10.030;2023-04-06T11:11:25;47.20;41.88;56.75;;
77729;Laerm;68312;53.502;10.030;2023-04-06T11:13:53;45.61;41.72;52.18;;
77729;Laerm;68312;53.502;10.030;2023-04-06T11:19:05;45.47;40.94;57.34;;
77729;Laerm;68312;53.502;10.030;2023-04-06T11:21:46;45.48;41.00;59.31;;
77729;Laerm;68312;53.502;10.030;2023-04-06T11:24:21;44.72;40.81;51.44;;
77729;Laerm;68312;53.502;10.030;2023-04-06T11:26:58;46.33;41.77;54.68;;
77729;Laerm;68312;53.502;10.030;2023-04-06T11:29:29;46.08;40.34;57.35;;
77729;Laerm;68312;53.502;10.030;2023-04-06T11:32:01;45.28;40.47;55.98;;
77729;Laerm;68312;53.502;10.030;2023-04-06T11:34:30;48.29;39.02;65.40;;
77729;Laerm;68312;53.502;10.030;2023-04-06T11:37:00;44.80;40.32;59.20;;
77729;Laerm;68312;53.502;10.030;2023-04-06T11:39:29;43.72;39.76;54.98;;
77729;Laerm;68312;53.502;10.030;2023-04-06T11:42:02;47.93;40.29;64.76;;
77729;Laerm;68312;53.502;10.030;2023-04-06T11:44:39;48.06;38.79;61.23;;
77729;Laerm;68312;53.502;10.030;2023-04-06T11:47:08;45.29;40.22;54.48;;
77729;Laerm;68312;53.502;10.030;2023-04-06T11:49:40;44.27;38.64;60.89;;
77729;Laerm;68312;53.502;10.030;2023-04-06T11:52:27;44.72;40.43;53.46;;
77729;Laerm;68312;53.502;10.030;2023-04-06T11:54:54;49.26;40.97;64.41;;
77729;Laerm;68312;53.502;10.030;2023-04-06T11:57:22;47.31;39.68;61.42;;
77729;Laerm;68312;53.502;10.030;2023-04-06T11:59:51;44.31;39.75;63.73;;
77729;Laerm;68312;53.502;10.030;2023-04-06T12:02:17;45.40;40.07;57.60;;
77729;Laerm;68312;53.502;10.030;2023-04-06T12:04:44;42.95;38.97;52.51;;
77729;Laerm;68312;53.502;10.030;2023-04-06T12:07:10;43.74;39.11;52.76;;
77729;Laerm;68312;53.502;10.030;2023-04-06T12:09:36;44.93;39.87;59.86;;
77729;Laerm;68312;53.502;10.030;2023-04-06T12:12:03;47.12;40.77;61.11;;
77729;Laerm;68312;53.502;10.030;2023-04-06T12:14:29;43.72;39.67;53.30;;
77729;Laerm;68312;53.502;10.030;2023-04-06T12:16:57;45.73;39.91;54.48;;
77729;Laerm;68312;53.502;10.030;2023-04-06T12:19:23;45.29;39.80;61.04;;
77729;Laerm;68312;53.502;10.030;2023-04-06T12:21:54;48.26;39.89;58.66;;
77729;Laerm;68312;53.502;10.030;2023-04-06T12:24:20;45.71;40.74;66.32;;
77729;Laerm;68312;53.502;10.030;2023-04-06T12:26:45;48.44;41.08;64.89;;
77729;Laerm;68312;53.502;10.030;2023-04-06T12:29:11;46.05;39.66;63.95;;
77729;Laerm;68312;53.502;10.030;2023-04-06T12:31:39;45.57;40.41;55.85;;
77729;Laerm;68312;53.502;10.030;2023-04-06T12:34:07;48.10;40.24;62.00;;
77729;Laerm;68312;53.502;10.030;2023-04-06T12:36:33;45.99;38.49;61.22;;
77729;Laerm;68312;53.502;10.030;2023-04-06T12:38:59;44.00;39.05;61.11;;
77729;Laerm;68312;53.502;10.030;2023-04-06T12:41:29;44.13;39.44;57.07;;
77729;Laerm;68312;53.502;10.030;2023-04-06T12:43:55;49.89;39.39;78.73;;
77729;Laerm;68312;53.502;10.030;2023-04-06T12:46:23;46.51;39.10;64.36;;
77729;Laerm;68312;53.502;10.030;2023-04-06T12:48:48;44.39;38.70;58.68;;
77729;Laerm;68312;53.502;10.030;2023-04-06T12:51:14;79.16;37.81;105.10;;
77729;Laerm;68312;53.502;10.030;2023-04-06T12:53:40;43.43;39.52;53.61;;
77729;Laerm;68312;53.502;10.030;2023-04-06T12:56:15;43.79;39.36;54.47;;
77729;Laerm;68312;53.502;10.030;2023-04-06T12:58:43;42.87;38.99;57.98;;
77729;Laerm;68312;53.502;10.030;2023-04-06T13:01:10;43.44;39.67;55.32;;
77729;Laerm;68312;53.502;10.030;2023-04-06T13:03:39;44.34;39.87;54.77;;
77729;Laerm;68312;53.502;10.030;2023-04-06T13:06:05;44.57;40.43;63.51;;
77729;Laerm;68312;53.502;10.030;2023-04-06T13:08:31;44.36;39.01;54.61;;
77729;Laerm;68312;53.502;10.030;2023-04-06T13:10:56;45.78;38.45;61.54;;
77729;Laerm;68312;53.502;10.030;2023-04-06T13:13:28;43.65;37.89;57.81;;
77729;Laerm;68312;53.502;10.030;2023-04-06T13:16:03;44.52;38.86;54.61;;
77729;Laerm;68312;53.502;10.030;2023-04-06T13:18:31;44.13;39.93;53.22;;
77729;Laerm;68312;53.502;10.030;2023-04-06T13:20:58;45.32;40.26;59.13;;
77729;Laerm;68312;53.502;10.030;2023-04-06T13:23:26;45.16;40.18;62.27;;
77729;Laerm;68312;53.502;10.030;2023-04-06T13:26:06;48.02;39.51;69.16;;
77729;Laerm;68312;53.502;10.030;2023-04-06T13:28:36;46.55;40.02;67.37;;
77729;Laerm;68312;53.502;10.030;2023-04-06T13:31:05;44.99;40.35;54.89;;
77729;Laerm;68312;53.502;10.030;2023-04-06T13:33:31;44.82;40.85;56.84;;
77729;Laerm;68312;53.502;10.030;2023-04-06T13:35:59;49.40;40.43;71.57;;